Time;durP1;ratioP1;P1;durP2;ratioP2;P2;SDS_P1;SDS_P2;PMS_P1;PMS_P2;Temp;Humidity;BMP_temperature;BMP_pressure;BME280_temperature;BME280_humidity;BME280_pressure;Samples;Min_cycle;Max_cycle;Signal;HPM_P1;HPM_P2
2023/09/05 00:01:12;;;;;;;6.23;5.93;;;20.00;99.90;;;;;;5014180;28;20179;-59
2023/09/05 00:03:38;;;;;;;5.17;4.83;;;20.10;99.90;;;;;;5013636;28;20434;-59
2023/09/05 00:06:05;;;;;;;5.67;5.37;;;20.10;99.90;;;;;;5016001;28;20190;-60
2023/09/05 00:08:31;;;;;;;4.90;4.60;;;20.20;99.90;;;;;;5013673;28;20441;-59
2023/09/05 00:11:01;;;;;;;4.83;4.57;;;20.30;99.90;;;;;;5014427;28;20935;-59
2023/09/05 00:13:27;;;;;;;6.80;4.40;;;20.30;99.90;;;;;;5015421;28;20436;-60
2023/09/05 00:15:53;;;;;;;5.40;5.00;;;20.30;99.90;;;;;;5012952;28;20462;-59
2023/09/05 00:18:19;;;;;;;5.13;4.83;;;20.40;99.90;;;;;;5013528;28;20516;-60
2023/09/05 00:20:51;;;;;;;5.20;4.90;;;20.50;99.90;;;;;;5014702;28;20493;-60
2023/09/05 00:23:17;;;;;;;5.90;5.50;;;20.50;99.90;;;;;;5008246;28;20250;-59
2023/09/05 00:25:43;;;;;;;6.77;6.27;;;20.50;99.90;;;;;;5013432;28;20541;-60
2023/09/05 00:28:08;;;;;;;5.10;4.80;;;20.50;99.90;;;;;;5013470;28;20175;-60
2023/09/05 00:30:34;;;;;;;5.03;4.70;;;20.50;99.90;;;;;;5014118;28;20187;-59
2023/09/05 00:33:00;;;;;;;5.20;4.80;;;20.50;99.90;;;;;;5014244;28;20658;-59
2023/09/05 00:35:26;;;;;;;5.50;5.20;;;20.50;99.90;;;;;;5029304;28;20473;-59
2023/09/05 00:37:53;;;;;;;5.83;5.37;;;20.50;99.90;;;;;;5012822;28;20289;-59
2023/09/05 00:40:19;;;;;;;5.70;5.40;;;20.50;99.90;;;;;;5013550;28;20175;-60
2023/09/05 00:42:45;;;;;;;6.80;5.60;;;20.50;99.90;;;;;;5012645;28;20494;-60
2023/09/05 00:45:11;;;;;;;5.60;5.30;;;20.50;99.90;;;;;;5014475;28;20250;-60
2023/09/05 00:47:39;;;;;;;5.50;5.20;;;20.50;99.90;;;;;;5012968;28;20531;-59
2023/09/05 00:50:07;;;;;;;6.90;6.50;;;20.50;99.90;;;;;;5013122;28;20529;-59
2023/09/05 00:52:33;;;;;;;5.83;5.53;;;20.40;99.90;;;;;;5014366;28;20403;-59
2023/09/05 00:54:59;;;;;;;5.53;5.20;;;20.40;99.90;;;;;;5013116;28;20473;-59
2023/09/05 00:57:26;;;;;;;6.20;5.63;;;20.40;99.90;;;;;;5012896;28;20905;-59
2023/09/05 00:59:51;;;;;;;5.37;5.07;;;20.50;99.90;;;;;;5012274;28;20429;-59
2023/09/05 01:02:17;;;;;;;7.47;6.87;;;20.50;99.90;;;;;;5013406;28;20434;-59
2023/09/05 01:04:43;;;;;;;6.53;5.97;;;20.50;99.90;;;;;;4991657;28;20286;-59
2023/09/05 01:07:43;;;;;;;6.20;5.80;;;20.50;99.90;;;;;;5012166;28;20238;-59
2023/09/05 01:10:20;;;;;;;6.23;5.80;;;20.50;99.90;;;;;;5012810;28;20623;-59
2023/09/05 01:12:46;;;;;;;5.97;5.57;;;20.50;99.90;;;;;;5012966;28;20414;-59
2023/09/05 01:15:11;;;;;;;5.77;5.43;;;20.50;99.90;;;;;;5012555;28;20457;-60
2023/09/05 01:17:37;;;;;;;5.80;5.40;;;20.50;99.90;;;;;;5011827;28;20183;-59
2023/09/05 01:20:05;;;;;;;5.13;4.90;;;20.50;99.90;;;;;;5013535;28;20635;-60
2023/09/05 01:22:58;;;;;;;4.77;4.57;;;20.50;99.90;;;;;;5013019;28;20182;-59
2023/09/05 01:25:25;;;;;;;4.70;4.30;;;20.50;99.90;;;;;;5011315;28;20807;-60
2023/09/05 01:27:51;;;;;;;7.53;6.93;;;20.50;99.90;;;;;;5011931;28;20430;-59
2023/09/05 01:30:18;;;;;;;4.43;4.23;;;20.50;99.90;;;;;;5011846;28;20946;-59
2023/09/05 01:32:46;;;;;;;4.17;3.97;;;20.50;99.90;;;;;;5012163;28;20587;-63
2023/09/05 01:35:11;;;;;;;4.90;4.60;;;20.50;99.90;;;;;;5012269;28;20817;-60
2023/09/05 01:37:37;;;;;;;3.90;3.70;;;20.50;99.90;;;;;;5012747;28;20466;-59
2023/09/05 01:40:03;;;;;;;5.30;4.87;;;20.50;99.90;;;;;;5012166;28;20191;-60
2023/09/05 01:42:29;;;;;;;5.10;4.70;;;20.60;99.90;;;;;;5013032;28;20273;-60
2023/09/05 01:44:55;;;;;;;5.10;4.80;;;20.70;99.90;;;;;;5012461;28;20795;-59
2023/09/05 01:47:20;;;;;;;7.33;6.27;;;20.80;99.90;;;;;;5012066;28;20632;-60
2023/09/05 01:49:46;;;;;;;6.40;5.90;;;20.90;99.90;;;;;;5012033;28;20183;-60
2023/09/05 01:52:12;;;;;;;4.93;4.53;;;21.00;99.90;;;;;;5013545;28;20206;-60
2023/09/05 01:54:40;;;;;;;8.37;7.73;;;21.00;99.90;;;;;;5010163;28;20293;-60
2023/09/05 01:57:06;;;;;;;5.63;5.27;;;21.10;99.90;;;;;;5011692;28;20195;-60
2023/09/05 01:59:32;;;;;;;5.03;4.70;;;21.10;99.80;;;;;;5013226;28;20419;-60
2023/09/05 02:01:57;;;;;;;5.40;5.00;;;21.20;99.90;;;;;;5011050;28;20206;-60
2023/09/05 02:04:23;;;;;;;4.97;4.77;;;21.20;98.80;;;;;;5011690;28;20642;-60
2023/09/05 02:06:49;;;;;;;5.87;5.50;;;21.20;99.40;;;;;;5011872;28;20643;-60
2023/09/05 02:09:17;;;;;;;9.57;8.70;;;21.30;99.90;;;;;;5011536;28;20191;-60
2023/09/05 02:11:43;;;;;;;5.60;5.20;;;21.40;99.90;;;;;;5010138;28;20191;-60
2023/09/05 02:14:08;;;;;;;5.60;5.10;;;21.50;99.90;;;;;;5009554;28;20433;-60
2023/09/05 02:16:34;;;;;;;4.40;4.10;;;21.50;99.90;;;;;;5011781;28;20189;-60
2023/09/05 02:19:00;;;;;;;6.27;5.77;;;21.50;99.90;;;;;;5011190;28;20213;-60
2023/09/05 02:21:26;;;;;;;5.37;4.97;;;21.50;99.90;;;;;;5011510;28;20187;-60
2023/09/05 02:23:52;;;;;;;4.63;4.43;;;21.50;99.90;;;;;;5011523;28;20266;-60
2023/09/05 02:26:18;;;;;;;5.10;4.80;;;21.50;97.80;;;;;;5012907;28;20260;-60
2023/09/05 02:28:44;;;;;;;7.33;6.67;;;21.50;99.00;;;;;;5010689;28;20469;-60
2023/09/05 02:31:10;;;;;;;5.03;4.83;;;21.50;98.80;;;;;;5012093;28;20606;-60
2023/09/05 02:33:37;;;;;;;5.80;5.40;;;21.50;99.90;;;;;;5011782;28;20430;-60
2023/09/05 02:36:21;;;;;;;5.77;5.37;;;21.60;99.90;;;;;;5008225;28;20470;-60
2023/09/05 02:38:47;;;;;;;5.30;5.00;;;21.50;99.90;;;;;;5011073;28;20560;-59
2023/09/05 02:41:17;;;;;;;4.60;4.40;;;21.50;99.90;;;;;;5011688;28;20441;-60
2023/09/05 02:43:43;;;;;;;7.10;6.60;;;21.50;99.90;;;;;;5010360;28;20791;-60
2023/09/05 02:46:09;;;;;;;5.60;5.33;;;21.40;99.90;;;;;;5011863;28;20442;-60
2023/09/05 02:48:39;;;;;;;5.20;4.90;;;21.40;99.90;;;;;;5011453;28;20430;-60
2023/09/05 02:51:08;;;;;;;5.27;4.97;;;21.30;98.80;;;;;;5011994;28;20429;-60
2023/09/05 02:53:35;;;;;;;6.20;5.70;;;21.30;99.40;;;;;;5003041;28;20835;-59
2023/09/05 02:56:00;;;;;;;4.63;4.43;;;21.30;99.90;;;;;;5010976;28;20984;-59
2023/09/05 02:58:27;;;;;;;5.10;4.83;;;21.40;98.70;;;;;;5013119;28;20414;-59
2023/09/05 03:01:01;;;;;;;5.80;5.40;;;21.40;97.40;;;;;;5010363;28;20270;-59
2023/09/05 03:03:27;;;;;;;6.87;6.33;;;21.40;97.60;;;;;;5010834;28;20456;-59
2023/09/05 03:05:53;;;;;;;6.73;6.13;;;21.40;98.30;;;;;;5012215;28;20426;-60
2023/09/05 03:08:19;;;;;;;6.80;5.00;;;21.50;99.70;;;;;;5011142;28;20440;-60
2023/09/05 03:10:49;;;;;;;4.53;4.30;;;21.50;98.20;;;;;;5010998;28;20803;-60
2023/09/05 03:13:15;;;;;;;4.90;4.40;;;21.60;99.80;;;;;;5012244;28;20175;-59
2023/09/05 03:15:41;;;;;;;6.50;6.00;;;21.60;99.20;;;;;;5010236;28;20469;-60
2023/09/05 03:18:06;;;;;;;4.20;4.00;;;21.60;99.80;;;;;;5003216;28;20184;-60
2023/09/05 03:20:32;;;;;;;4.60;4.30;;;21.60;99.90;;;;;;5003580;28;20202;-59
2023/09/05 03:22:58;;;;;;;5.00;4.80;;;21.60;99.90;;;;;;5010062;28;20183;-59
2023/09/05 03:25:24;;;;;;;4.93;4.63;;;21.50;99.60;;;;;;5010507;28;20202;-60
2023/09/05 03:27:50;;;;;;;5.83;5.50;;;21.50;99.90;;;;;;5014544;28;20190;-60
2023/09/05 03:30:16;;;;;;;4.47;4.27;;;21.40;99.90;;;;;;5014302;28;20550;-60
2023/09/05 03:32:42;;;;;;;4.70;4.40;;;21.40;99.90;;;;;;5013591;28;20952;-59
2023/09/05 03:35:08;;;;;;;5.87;5.30;;;21.40;99.90;;;;;;5014797;28;20469;-59
2023/09/05 03:37:34;;;;;;;5.30;4.90;;;21.30;99.90;;;;;;5014495;28;20233;-59
2023/09/05 03:39:59;;;;;;;5.03;4.80;;;21.30;99.90;;;;;;5014599;28;20538;-58
2023/09/05 03:42:25;;;;;;;7.30;6.80;;;21.20;99.90;;;;;;5015213;28;20190;-59
2023/09/05 03:44:51;;;;;;;5.80;5.30;;;21.20;99.90;;;;;;5013810;28;20183;-59
2023/09/05 03:47:17;;;;;;;6.90;6.47;;;21.10;99.90;;;;;;5016051;28;20198;-59
2023/09/05 03:49:43;;;;;;;6.60;5.90;;;21.10;99.90;;;;;;5005847;28;20614;-60
2023/09/05 03:52:08;;;;;;;7.63;7.23;;;21.00;99.90;;;;;;5014682;28;20183;-59
2023/09/05 03:54:34;;;;;;;6.10;5.70;;;20.90;99.90;;;;;;5015686;28;20496;-60
2023/09/05 03:57:00;;;;;;;6.30;5.90;;;20.90;99.90;;;;;;5014206;28;20217;-60
2023/09/05 03:59:25;;;;;;;5.27;4.87;;;20.90;99.90;;;;;;5014042;28;20683;-60
2023/09/05 04:01:51;;;;;;;6.80;6.30;;;20.80;99.90;;;;;;5014669;28;20241;-60
2023/09/05 04:04:17;;;;;;;10.17;9.40;;;20.80;99.90;;;;;;5013672;28;20229;-60
2023/09/05 04:06:43;;;;;;;8.23;7.73;;;20.80;99.90;;;;;;4996872;28;20171;-60
2023/09/05 04:09:10;;;;;;;8.17;7.67;;;20.70;99.90;;;;;;5014498;28;20515;-59
2023/09/05 04:11:36;;;;;;;8.00;7.50;;;20.70;99.90;;;;;;5014519;28;20437;-60
2023/09/05 04:14:02;;;;;;;5.53;5.13;;;20.70;99.90;;;;;;5012675;28;20194;-59
2023/09/05 04:16:27;;;;;;;8.53;7.73;;;20.60;99.90;;;;;;5014147;28;20305;-60
2023/09/05 04:18:53;;;;;;;5.70;5.30;;;20.60;99.90;;;;;;5013427;28;20183;-59
2023/09/05 04:21:19;;;;;;;5.97;5.60;;;20.50;99.90;;;;;;5014819;28;20182;-60
2023/09/05 04:23:45;;;;;;;5.03;4.73;;;20.50;99.90;;;;;;5015098;28;20320;-59
2023/09/05 04:26:11;;;;;;;6.13;5.77;;;20.40;99.90;;;;;;5013428;28;20778;-59
2023/09/05 04:28:36;;;;;;;6.60;6.20;;;20.40;99.90;;;;;;5014335;28;20457;-60
2023/09/05 04:31:04;;;;;;;5.53;5.23;;;20.40;99.90;;;;;;5014706;28;20182;-59
2023/09/05 04:33:37;;;;;;;5.60;5.30;;;20.40;99.90;;;;;;5013802;28;20194;-60
2023/09/05 04:36:06;;;;;;;7.13;6.77;;;20.30;99.90;;;;;;5012315;28;20493;-59
2023/09/05 04:38:32;;;;;;;4.57;4.27;;;20.30;99.90;;;;;;5012795;28;20552;-59
2023/09/05 04:41:01;;;;;;;7.23;4.60;;;20.30;99.90;;;;;;5013255;28;20989;-59
2023/09/05 04:43:27;;;;;;;5.63;5.33;;;20.20;99.90;;;;;;5011818;28;20187;-60
2023/09/05 04:45:54;;;;;;;5.40;5.10;;;20.30;99.90;;;;;;5013180;28;20941;-59
2023/09/05 04:48:20;;;;;;;5.87;5.37;;;20.20;99.90;;;;;;5014991;28;20815;-60
2023/09/05 04:50:46;;;;;;;5.27;4.80;;;20.20;99.90;;;;;;5009836;28;20449;-58
2023/09/05 04:53:12;;;;;;;4.80;4.40;;;20.20;99.90;;;;;;5006840;28;20186;-61
2023/09/05 04:55:40;;;;;;;4.70;4.40;;;20.20;99.90;;;;;;5014767;28;20458;-59
2023/09/05 04:58:06;;;;;;;6.03;5.53;;;20.10;99.90;;;;;;5012608;28;20229;-60
2023/09/05 05:00:33;;;;;;;5.77;5.27;;;20.10;99.90;;;;;;5011951;28;20930;-60
2023/09/05 05:03:00;;;;;;;5.67;5.23;;;20.10;99.90;;;;;;5013570;28;20429;-60
2023/09/05 05:05:25;;;;;;;5.03;4.63;;;20.00;99.90;;;;;;5011411;28;20776;-60
2023/09/05 05:07:51;;;;;;;5.30;4.90;;;20.00;99.90;;;;;;5013237;28;20512;-59
2023/09/05 05:10:17;;;;;;;5.40;5.03;;;20.00;99.90;;;;;;5014015;28;20203;-59
2023/09/05 05:12:43;;;;;;;5.10;4.90;;;20.00;99.90;;;;;;5012711;28;20182;-60
2023/09/05 05:15:09;;;;;;;5.80;5.40;;;20.00;99.90;;;;;;5003312;28;20298;-59
2023/09/05 05:17:36;;;;;;;6.53;6.13;;;20.00;99.90;;;;;;5013511;28;20185;-63
2023/09/05 05:20:05;;;;;;;7.00;6.57;;;20.10;99.90;;;;;;5013381;28;20429;-64
2023/09/05 05:22:31;;;;;;;6.47;5.80;;;20.20;99.90;;;;;;4999375;28;20443;-64
2023/09/05 05:24:57;;;;;;;7.07;6.57;;;20.30;99.90;;;;;;4995544;28;20421;-64
2023/09/05 05:27:23;;;;;;;8.90;8.17;;;20.50;99.90;;;;;;5013979;28;20930;-63
2023/09/05 05:29:49;;;;;;;11.17;10.17;;;20.60;99.90;;;;;;5012207;28;20429;-61
2023/09/05 05:32:14;;;;;;;7.30;6.60;;;20.70;99.90;;;;;;5013602;28;20551;-63
2023/09/05 05:34:40;;;;;;;9.10;8.30;;;20.80;99.90;;;;;;5013145;28;20477;-64
2023/09/05 05:37:06;;;;;;;7.00;6.00;;;20.90;99.90;;;;;;5012191;28;20710;-63
2023/09/05 05:39:32;;;;;;;8.97;6.90;;;21.00;99.90;;;;;;5013576;28;20163;-64
2023/09/05 05:42:00;;;;;;;6.50;6.00;;;21.10;99.90;;;;;;4998103;28;20238;-64
2023/09/05 05:44:26;;;;;;;6.60;5.90;;;21.10;99.90;;;;;;5010902;28;20426;-63
2023/09/05 05:46:56;;;;;;;7.50;6.90;;;21.20;99.90;;;;;;5028153;28;20532;-63
2023/09/05 05:49:22;;;;;;;10.50;9.60;;;21.30;99.90;;;;;;5005062;28;20179;-63
2023/09/05 05:51:50;;;;;;;6.10;5.57;;;21.30;99.90;;;;;;5012933;28;20472;-62
2023/09/05 05:54:16;;;;;;;9.30;4.97;;;21.40;99.90;;;;;;5009919;28;20208;-63
2023/09/05 05:56:41;;;;;;;5.00;4.60;;;21.40;99.90;;;;;;5011762;28;21003;-58
2023/09/05 05:59:07;;;;;;;6.50;6.03;;;21.40;99.90;;;;;;5011317;28;20294;-59
2023/09/05 06:01:34;;;;;;;11.70;10.57;;;21.40;99.90;;;;;;5010366;28;20214;-59
2023/09/05 06:03:59;;;;;;;7.23;6.60;;;21.30;99.90;;;;;;5009808;28;20664;-59
2023/09/05 06:06:25;;;;;;;7.00;6.40;;;21.30;99.90;;;;;;4986240;28;20571;-59
2023/09/05 06:08:51;;;;;;;6.10;5.53;;;21.20;99.90;;;;;;5010485;28;20232;-60
2023/09/05 06:11:17;;;;;;;7.83;7.43;;;21.10;99.90;;;;;;5012187;28;20186;-59
2023/09/05 06:13:43;;;;;;;4.00;3.70;;;21.10;99.90;;;;;;5013435;28;20410;-60
2023/09/05 06:16:09;;;;;;;7.40;6.90;;;21.00;99.90;;;;;;5011214;28;20217;-59
2023/09/05 06:18:35;;;;;;;6.43;5.93;;;20.90;99.90;;;;;;5004347;28;20469;-59
2023/09/05 06:21:00;;;;;;;5.07;4.67;;;21.00;99.90;;;;;;5010360;28;20186;-59
2023/09/05 06:23:26;;;;;;;5.27;4.97;;;21.00;99.90;;;;;;5014507;28;20267;-59
2023/09/05 06:25:52;;;;;;;6.20;5.70;;;21.00;99.90;;;;;;5000596;28;20257;-60
2023/09/05 06:28:18;;;;;;;5.73;5.30;;;21.00;99.90;;;;;;5009995;28;20267;-60
2023/09/05 06:30:44;;;;;;;5.50;5.10;;;21.00;99.90;;;;;;5010888;28;20977;-64
2023/09/05 06:33:09;;;;;;;6.87;6.47;;;21.00;99.90;;;;;;5010729;28;20269;-60
2023/09/05 06:35:36;;;;;;;5.00;4.70;;;21.00;99.90;;;;;;5011456;28;20218;-60
2023/09/05 06:38:02;;;;;;;7.23;6.80;;;20.90;99.90;;;;;;5010760;28;20257;-60
2023/09/05 06:40:28;;;;;;;8.33;7.60;;;20.90;99.90;;;;;;5004532;28;20941;-60
2023/09/05 06:42:54;;;;;;;8.23;6.10;;;20.90;99.90;;;;;;5011185;28;20461;-60
2023/09/05 06:45:20;;;;;;;14.93;13.47;;;21.00;99.90;;;;;;5012605;28;20171;-60
2023/09/05 06:47:46;;;;;;;10.10;9.30;;;21.00;99.90;;;;;;5011501;28;20552;-60
2023/09/05 06:50:12;;;;;;;7.23;6.53;;;21.10;99.90;;;;;;5010171;28;20426;-60
2023/09/05 06:52:39;;;;;;;10.00;9.20;;;21.20;99.90;;;;;;5011251;28;20431;-60
2023/09/05 06:55:04;;;;;;;6.53;5.83;;;21.20;99.90;;;;;;5010101;28;20272;-60
2023/09/05 06:57:30;;;;;;;10.90;9.80;;;21.20;99.90;;;;;;5010596;28;20426;-59
2023/09/05 06:59:56;;;;;;;7.83;7.10;;;21.30;99.90;;;;;;5010538;28;20475;-60
2023/09/05 07:02:22;;;;;;;7.33;6.50;;;21.30;99.90;;;;;;5010118;28;20186;-60
2023/09/05 07:04:47;;;;;;;10.03;7.80;;;21.40;99.90;;;;;;5001278;28;20194;-60
2023/09/05 07:07:16;;;;;;;7.97;7.17;;;21.40;99.90;;;;;;5009366;28;20179;-60
2023/09/05 07:09:42;;;;;;;8.33;7.53;;;21.50;99.90;;;;;;5010414;28;20512;-60
2023/09/05 07:12:08;;;;;;;10.63;9.63;;;21.50;99.90;;;;;;5009916;28;20899;-60
2023/09/05 07:14:33;;;;;;;10.17;9.17;;;21.60;99.90;;;;;;5012769;28;20207;-59
2023/09/05 07:16:59;;;;;;;8.80;8.07;;;21.60;99.90;;;;;;5010553;28;20548;-59
2023/09/05 07:19:29;;;;;;;8.40;7.67;;;21.60;99.90;;;;;;5010560;28;20179;-59
2023/09/05 07:21:56;;;;;;;8.20;7.50;;;21.70;99.90;;;;;;5010225;28;20647;-59
2023/09/05 07:24:21;;;;;;;15.53;13.17;;;21.70;99.90;;;;;;5011835;28;20425;-59
2023/09/05 07:26:47;;;;;;;19.40;15.60;;;21.80;99.90;;;;;;5011006;28;20810;-60
2023/09/05 07:29:13;;;;;;;25.23;22.40;;;21.90;99.90;;;;;;5011676;28;20615;-60
2023/09/05 07:31:40;;;;;;;28.00;22.70;;;22.00;99.90;;;;;;5010728;28;20666;-60
2023/09/05 07:34:06;;;;;;;13.23;11.63;;;22.10;99.90;;;;;;5007396;28;20432;-60
2023/09/05 07:36:33;;;;;;;26.10;22.20;;;22.20;99.90;;;;;;5012144;28;20461;-60
2023/09/05 07:39:01;;;;;;;16.30;14.03;;;22.20;99.90;;;;;;5025233;28;20480;-60
2023/09/05 07:41:28;;;;;;;43.90;35.50;;;22.30;99.90;;;;;;5010425;28;20418;-61
2023/09/05 07:43:54;;;;;;;533.40;397.37;;;22.30;99.90;;;;;;5012146;28;20418;-61
2023/09/05 07:46:20;;;;;;;91.97;74.10;;;22.50;99.90;;;;;;5011576;28;20430;-62
2023/09/05 07:48:47;;;;;;;47.07;40.30;;;22.50;99.90;;;;;;5011855;28;20186;-62
2023/09/05 07:51:13;;;;;;;12.10;11.00;;;22.70;99.90;;;;;;5011804;28;20167;-62
2023/09/05 07:53:49;;;;;;;14.13;12.57;;;22.80;99.90;;;;;;5012245;28;20417;-62
2023/09/05 07:56:15;;;;;;;54.23;43.50;;;22.80;99.90;;;;;;5007321;28;20458;-62
2023/09/05 07:58:41;;;;;;;113.07;101.03;;;22.90;99.90;;;;;;4998981;28;20540;-62
2023/09/05 08:01:09;;;;;;;57.57;45.17;;;22.90;99.90;;;;;;5010433;28;20415;-70
2023/09/05 08:03:38;;;;;;;17.80;14.63;;;23.10;99.90;;;;;;5010990;28;20505;-70
2023/09/05 08:06:04;;;;;;;6.13;5.63;;;23.10;99.90;;;;;;5011558;28;20422;-69
2023/09/05 08:08:31;;;;;;;22.97;19.73;;;23.20;99.90;;;;;;5012333;28;20410;-69
2023/09/05 08:10:56;;;;;;;8.23;7.63;;;23.30;99.90;;;;;;5012221;28;20171;-70
2023/09/05 08:13:22;;;;;;;5.10;4.80;;;23.30;99.90;;;;;;5012237;28;20891;-69
2023/09/05 08:15:50;;;;;;;7.20;6.70;;;23.40;99.90;;;;;;5012627;28;20257;-69
2023/09/05 08:18:17;;;;;;;23.20;20.20;;;23.50;99.90;;;;;;5013917;28;20960;-69
2023/09/05 08:20:43;;;;;;;7.30;6.63;;;23.50;99.90;;;;;;5014323;28;20424;-69
2023/09/05 08:23:11;;;;;;;24.37;21.77;;;23.60;99.90;;;;;;5014890;28;20752;-69
2023/09/05 08:25:38;;;;;;;9.50;8.80;;;23.60;99.90;;;;;;5014206;28;20179;-69
2023/09/05 08:28:04;;;;;;;23.43;18.03;;;23.60;99.90;;;;;;5014845;28;20394;-69
2023/09/05 08:30:30;;;;;;;9.37;8.57;;;23.70;99.90;;;;;;5015059;28;20406;-70
2023/09/05 08:32:57;;;;;;;17.70;14.00;;;23.80;99.90;;;;;;5013961;28;20480;-70
2023/09/05 08:35:23;;;;;;;6.90;6.30;;;23.90;99.90;;;;;;5013269;28;20549;-69
2023/09/05 08:37:48;;;;;;;3.60;3.40;;;23.90;99.90;;;;;;5013052;28;20564;-70
2023/09/05 08:40:15;;;;;;;6.17;5.77;;;23.90;99.90;;;;;;5014602;28;20878;-69
2023/09/05 08:42:47;;;;;;;5.13;4.83;;;23.90;99.90;;;;;;5013989;28;20179;-69
2023/09/05 08:45:19;;;;;;;5.00;4.60;;;24.00;99.90;;;;;;5014549;28;20821;-69
2023/09/05 08:47:45;;;;;;;17.57;15.97;;;24.10;99.90;;;;;;5015111;28;20863;-70
2023/09/05 08:50:11;;;;;;;5.30;5.00;;;24.20;99.90;;;;;;5014458;28;20410;-69
2023/09/05 08:52:41;;;;;;;56.20;50.67;;;24.20;99.90;;;;;;5015164;28;20527;-70
2023/09/05 08:55:07;;;;;;;166.03;132.83;;;24.30;99.90;;;;;;5014200;28;20458;-69
2023/09/05 08:57:35;;;;;;;67.27;51.90;;;24.30;97.10;;;;;;5014667;28;20406;-69
2023/09/05 09:00:08;;;;;;;39.30;35.63;;;24.50;95.90;;;;;;5013354;28;21036;-67
2023/09/05 09:02:38;;;;;;;11.53;10.53;;;24.60;98.30;;;;;;5014726;28;20418;-69
2023/09/05 09:05:04;;;;;;;4.50;4.30;;;24.70;98.70;;;;;;5014116;28;20460;-69
2023/09/05 09:07:30;;;;;;;6.30;5.90;;;24.80;96.70;;;;;;5014252;28;20934;-69
2023/09/05 09:10:14;;;;;;;4.80;4.60;;;24.80;94.20;;;;;;5013292;28;20504;-69
2023/09/05 09:12:40;;;;;;;4.27;4.00;;;24.90;93.40;;;;;;5014409;28;20940;-69
2023/09/05 09:15:13;;;;;;;4.20;4.00;;;25.10;95.30;;;;;;5013527;28;20544;-69
2023/09/05 09:17:47;;;;;;;7.47;6.97;;;25.20;93.20;;;;;;5014511;28;20182;-69
2023/09/05 09:20:13;;;;;;;3.80;3.50;;;25.30;94.60;;;;;;5013920;28;20394;-69
2023/09/05 09:22:40;;;;;;;4.03;3.83;;;25.50;93.70;;;;;;5014642;28;20516;-69
2023/09/05 09:25:14;;;;;;;3.03;2.83;;;25.70;92.50;;;;;;5013396;28;20493;-69
2023/09/05 09:27:42;;;;;;;3.73;3.50;;;25.80;92.00;;;;;;5012656;28;20430;-69
2023/09/05 09:30:09;;;;;;;3.57;3.47;;;26.00;92.90;;;;;;5013720;28;20438;-69
2023/09/05 09:32:38;;;;;;;3.60;3.40;;;26.20;90.70;;;;;;5014204;28;20402;-69
2023/09/05 09:35:06;;;;;;;7.10;6.80;;;26.40;91.20;;;;;;5013627;28;20806;-68
2023/09/05 09:37:33;;;;;;;3.50;3.30;;;26.60;90.70;;;;;;5013523;28;20561;-69
2023/09/05 09:40:00;;;;;;;3.73;3.63;;;26.80;90.80;;;;;;5014041;28;20421;-69
2023/09/05 09:42:27;;;;;;;2.90;2.80;;;27.00;87.60;;;;;;5013466;28;20501;-69
2023/09/05 09:44:54;;;;;;;3.17;3.07;;;27.20;84.60;;;;;;5012648;28;20464;-69
2023/09/05 09:47:20;;;;;;;3.30;3.13;;;27.40;86.10;;;;;;5013103;28;20390;-70
2023/09/05 09:49:50;;;;;;;3.00;2.90;;;27.50;82.50;;;;;;5014126;28;20418;-69
2023/09/05 09:52:21;;;;;;;2.93;2.83;;;27.60;80.90;;;;;;5011922;28;20461;-70
2023/09/05 09:54:51;;;;;;;18.60;16.80;;;27.70;79.90;;;;;;5012627;28;20450;-71
2023/09/05 09:57:44;;;;;;;4.10;3.87;;;27.90;82.70;;;;;;5012879;28;20817;-70
2023/09/05 10:00:17;;;;;;;67.30;58.40;;;28.00;78.80;;;;;;5012893;28;20403;-70
2023/09/05 10:02:45;;;;;;;4.93;4.63;;;28.00;80.90;;;;;;5013701;28;20401;-62
2023/09/05 10:05:12;;;;;;;4.43;4.07;;;28.30;80.60;;;;;;5012688;28;20414;-62
2023/09/05 10:07:38;;;;;;;3.80;3.70;;;28.40;76.60;;;;;;5013362;28;20410;-62
2023/09/05 10:10:05;;;;;;;3.67;3.57;;;28.60;75.40;;;;;;5013520;28;20402;-62
2023/09/05 10:12:31;;;;;;;4.37;4.07;;;28.80;75.30;;;;;;5012251;28;20916;-62
2023/09/05 10:14:59;;;;;;;4.47;4.37;;;29.00;78.50;;;;;;5012518;28;20462;-62
2023/09/05 10:17:29;;;;;;;4.10;3.90;;;29.20;71.00;;;;;;5012831;28;20508;-62
2023/09/05 10:19:57;;;;;;;4.00;3.70;;;29.20;72.80;;;;;;5013491;28;20433;-62
2023/09/05 10:22:24;;;;;;;4.10;3.90;;;29.40;78.50;;;;;;5012696;28;20568;-62
2023/09/05 10:24:50;;;;;;;4.53;4.13;;;29.70;76.80;;;;;;5012159;28;20898;-62
2023/09/05 10:27:16;;;;;;;5.70;5.50;;;29.80;75.00;;;;;;5009801;28;20430;-62
2023/09/05 10:29:46;;;;;;;3.27;3.17;;;30.10;75.30;;;;;;5013235;28;20399;-62
2023/09/05 10:32:23;;;;;;;4.00;3.80;;;30.30;70.80;;;;;;5011411;28;20536;-62
2023/09/05 10:34:48;;;;;;;2.93;2.83;;;30.50;71.60;;;;;;5012640;28;20453;-62
2023/09/05 10:37:15;;;;;;;4.40;4.20;;;30.60;71.50;;;;;;5010705;28;21040;-62
2023/09/05 10:39:45;;;;;;;3.40;3.30;;;30.70;69.70;;;;;;5011958;28;20266;-62
2023/09/05 10:42:15;;;;;;;4.10;3.90;;;30.80;72.70;;;;;;5011913;28;20398;-63
2023/09/05 10:44:47;;;;;;;3.40;3.30;;;30.90;69.70;;;;;;5011719;28;20781;-62
2023/09/05 10:47:26;;;;;;;3.87;3.67;;;31.00;70.00;;;;;;5011189;28;20407;-63
2023/09/05 10:50:00;;;;;;;8.00;3.20;;;31.10;69.40;;;;;;5012923;28;20422;-62
2023/09/05 10:52:29;;;;;;;3.50;3.30;;;31.00;70.00;;;;;;5010795;28;20446;-62
2023/09/05 10:55:19;;;;;;;3.73;3.53;;;31.00;66.50;;;;;;5012785;28;20964;-64
2023/09/05 10:57:49;;;;;;;6.40;6.10;;;31.10;68.60;;;;;;5004499;28;20418;-62
2023/09/05 11:00:29;;;;;;;6.30;6.00;;;31.10;67.70;;;;;;5012080;28;20440;-62
2023/09/05 11:03:16;;;;;;;3.60;3.50;;;31.20;66.80;;;;;;5012944;28;20398;-62
2023/09/05 11:05:45;;;;;;;3.30;3.20;;;31.20;67.50;;;;;;5012007;28;20402;-63
2023/09/05 11:08:22;;;;;;;3.07;2.90;;;31.20;65.70;;;;;;5011236;28;20425;-63
2023/09/05 11:10:53;;;;;;;3.30;3.20;;;31.20;64.10;;;;;;5009500;28;20488;-62
2023/09/05 11:13:19;;;;;;;3.87;3.77;;;31.30;63.80;;;;;;5011415;28;20425;-62
2023/09/05 11:15:44;;;;;;;4.13;3.93;;;31.40;66.70;;;;;;5009473;28;20984;-62
2023/09/05 11:18:14;;;;;;;3.90;3.80;;;31.50;67.10;;;;;;5010079;28;20175;-63
2023/09/05 11:20:45;;;;;;;3.37;3.27;;;31.60;66.50;;;;;;5012737;28;20406;-63
2023/09/05 11:23:29;;;;;;;3.80;3.70;;;31.60;64.30;;;;;;5010957;28;20402;-63
2023/09/05 11:26:00;;;;;;;4.00;3.90;;;31.70;61.60;;;;;;5012393;28;20386;-63
2023/09/05 11:28:26;;;;;;;5.23;4.93;;;31.60;62.90;;;;;;5012054;28;20425;-63
2023/09/05 11:30:56;;;;;;;6.07;5.77;;;31.50;63.10;;;;;;5012592;28;20406;-63
2023/09/05 11:33:23;;;;;;;5.30;4.80;;;31.50;66.40;;;;;;5011506;28;20171;-64
2023/09/05 11:35:49;;;;;;;3.97;3.87;;;31.40;61.60;;;;;;5003713;28;20461;-63
2023/09/05 11:38:19;;;;;;;5.53;3.90;;;31.30;61.80;;;;;;5011703;28;20957;-63
2023/09/05 11:40:57;;;;;;;3.77;3.67;;;31.30;64.10;;;;;;5012275;28;20760;-62
2023/09/05 11:43:23;;;;;;;3.37;3.27;;;31.40;63.20;;;;;;5011847;28;20789;-63
2023/09/05 11:45:57;;;;;;;3.00;2.90;;;31.40;64.50;;;;;;5010839;28;20430;-62
2023/09/05 11:48:25;;;;;;;2.90;2.80;;;31.40;61.60;;;;;;5014937;28;20418;-63
2023/09/05 11:50:52;;;;;;;3.93;3.83;;;31.30;61.80;;;;;;5015665;28;20406;-63
2023/09/05 11:53:19;;;;;;;3.43;2.50;;;31.20;62.90;;;;;;5013828;28;20409;-63
2023/09/05 11:55:46;;;;;;;2.70;1.97;;;31.20;62.90;;;;;;5016060;28;20450;-63
2023/09/05 11:58:15;;;;;;;3.43;3.33;;;31.10;62.90;;;;;;5013745;28;20920;-65
2023/09/05 12:00:45;;;;;;;2.27;2.17;;;31.10;63.10;;;;;;5014084;28;20469;-63
2023/09/05 12:03:14;;;;;;;2.50;2.30;;;31.10;63.90;;;;;;5015164;28;20792;-62
2023/09/05 12:05:42;;;;;;;3.40;3.30;;;31.10;63.20;;;;;;5015980;28;20773;-63
2023/09/05 12:08:08;;;;;;;5.00;4.80;;;31.20;61.40;;;;;;5014403;28;20910;-63
2023/09/05 12:10:43;;;;;;;3.47;3.30;;;31.20;61.90;;;;;;5014913;28;20406;-62
2023/09/05 12:13:09;;;;;;;3.93;3.83;;;31.30;62.60;;;;;;5015723;28;20475;-63
2023/09/05 12:15:36;;;;;;;3.77;3.67;;;31.30;64.10;;;;;;5015023;28;20532;-63
2023/09/05 12:18:04;;;;;;;4.40;4.20;;;31.20;62.90;;;;;;5015671;28;20582;-63
2023/09/05 12:20:34;;;;;;;4.00;3.80;;;31.10;61.20;;;;;;5015004;28;20442;-62
2023/09/05 12:23:05;;;;;;;166.43;148.97;;;31.00;61.50;;;;;;5009487;28;20434;-62
2023/09/05 12:25:31;;;;;;;9.57;8.80;;;30.90;62.50;;;;;;4995030;28;20907;-62
2023/09/05 12:28:15;;;;;;;2.80;2.70;;;30.90;61.40;;;;;;4995813;28;20399;-63
2023/09/05 12:30:42;;;;;;;5.30;5.10;;;30.70;64.30;;;;;;4995796;28;20178;-62
2023/09/05 12:33:07;;;;;;;4.60;4.30;;;30.60;64.40;;;;;;4995581;28;20773;-62
2023/09/05 12:35:34;;;;;;;3.03;2.73;;;30.50;62.50;;;;;;4995084;28;20719;-62
2023/09/05 12:38:07;;;;;;;3.30;3.10;;;30.50;61.60;;;;;;4995234;28;20224;-62
2023/09/05 12:40:34;;;;;;;3.00;2.90;;;30.40;62.10;;;;;;4995105;28;20439;-62
2023/09/05 12:43:00;;;;;;;3.20;3.10;;;30.40;62.10;;;;;;4995607;28;20856;-62
2023/09/05 12:45:26;;;;;;;4.10;3.90;;;30.20;63.60;;;;;;5002405;28;20814;-63